Time;durP1;ratioP1;P1;durP2;ratioP2;P2;SDS_P1;SDS_P2;PMS_P1;PMS_P2;Temp;Humidity;BMP_temperature;BMP_pressure;BME280_temperature;BME280_humidity;BME280_pressure;Samples;Min_cycle;Max_cycle;Signal;HPM_P1;HPM_P2
2021/05/03 00:00:13;;;;;;;9.23;8.40;;;;;;;8.12;59.88;95865.97;6792375;28;20655;-71
2021/05/03 00:03:37;;;;;;;8.13;7.33;;;;;;;8.01;60.05;95868.53;6816949;28;20252;-72
2021/05/03 00:06:57;;;;;;;6.73;6.13;;;;;;;7.95;60.33;95868.94;6828851;28;20226;-71
2021/05/03 00:10:18;;;;;;;7.47;6.83;;;;;;;7.88;60.04;95859.75;6823058;28;20306;-71
2021/05/03 00:13:39;;;;;;;7.17;6.57;;;;;;;7.86;60.72;95866.94;6839238;28;20217;-71
2021/05/03 00:16:59;;;;;;;7.30;6.70;;;;;;;7.86;61.12;95868.72;6838933;28;20226;-71
2021/05/03 00:20:20;;;;;;;8.40;7.70;;;;;;;7.82;60.65;95860.16;6838555;28;20231;-70
2021/05/03 00:23:40;;;;;;;7.37;6.67;;;;;;;7.82;60.72;95865.44;6830192;28;20229;-70
2021/05/03 00:27:01;;;;;;;7.40;6.73;;;;;;;7.81;60.58;95868.19;6838732;28;20225;-71
2021/05/03 00:30:21;;;;;;;6.97;6.17;;;;;;;7.76;60.59;95864.06;6856343;28;20225;-71
2021/05/03 00:33:42;;;;;;;6.27;5.73;;;;;;;7.72;60.25;95862.59;6822304;28;20305;-71
2021/05/03 00:37:02;;;;;;;6.43;5.93;;;;;;;7.71;60.00;95860.03;6838848;28;20753;-71
2021/05/03 00:40:23;;;;;;;5.93;5.43;;;;;;;7.67;60.10;95862.06;6838693;28;20265;-71
2021/05/03 00:43:43;;;;;;;6.63;5.70;;;;;;;7.65;60.05;95857.81;6855083;28;20678;-71
2021/05/03 00:47:04;;;;;;;6.97;6.37;;;;;;;7.63;59.98;95868.50;6819604;28;20284;-70
2021/05/03 00:50:28;;;;;;;8.57;7.77;;;;;;;7.57;60.27;95860.13;6822343;28;20304;-71
2021/05/03 00:53:49;;;;;;;6.80;6.20;;;;;;;7.51;60.67;95861.38;6821602;28;20288;-71
2021/05/03 00:57:09;;;;;;;5.67;5.17;;;;;;;7.48;60.58;95858.09;6822163;28;20241;-71
2021/05/03 01:00:30;;;;;;;7.97;6.60;;;;;;;7.43;60.54;95857.56;6838128;28;20222;-71
2021/05/03 01:03:50;;;;;;;7.53;6.83;;;;;;;7.38;61.08;95863.16;6837393;28;20277;-71
2021/05/03 01:07:11;;;;;;;8.03;7.27;;;;;;;7.34;60.87;95854.56;6846256;28;20683;-71
2021/05/03 01:10:31;;;;;;;7.53;6.93;;;;;;;7.27;61.04;95858.59;6855238;28;20222;-71
2021/05/03 01:13:52;;;;;;;7.43;6.83;;;;;;;7.23;60.96;95854.47;6853887;28;20230;-71
2021/05/03 01:17:12;;;;;;;9.10;8.20;;;;;;;7.20;61.30;95857.28;6836390;28;20313;-71
2021/05/03 01:20:34;;;;;;;9.53;8.30;;;;;;;7.20;61.71;95851.16;6821840;28;20218;-70
2021/05/03 01:23:55;;;;;;;7.40;6.77;;;;;;;7.19;61.54;95849.47;6826437;28;20232;-71
2021/05/03 01:27:15;;;;;;;7.60;7.00;;;;;;;7.20;61.73;95862.56;6840912;28;20313;-71
2021/05/03 01:30:38;;;;;;;7.23;6.50;;;;;;;7.21;61.90;95866.91;6811502;28;20246;-71
2021/05/03 01:34:09;;;;;;;11.57;10.60;;;;;;;7.18;62.08;95861.84;6815463;28;20230;-70
2021/05/03 01:37:29;;;;;;;11.17;10.20;;;;;;;7.11;62.89;95862.34;6839299;28;20699;-71
2021/05/03 01:40:50;;;;;;;9.07;8.27;;;;;;;7.06;63.13;95857.34;6810591;28;20224;-70
2021/05/03 01:44:15;;;;;;;6.47;5.97;;;;;;;7.05;62.39;95860.09;6809655;28;20222;-71
2021/05/03 01:47:36;;;;;;;8.27;6.63;;;;;;;7.01;61.71;95853.31;6839299;28;20229;-71
2021/05/03 01:50:58;;;;;;;7.03;6.43;;;;;;;6.97;61.48;95854.47;6794895;28;20222;-71
2021/05/03 01:54:19;;;;;;;8.33;7.63;;;;;;;6.97;61.50;95857.09;6842009;28;20215;-71
2021/05/03 01:57:40;;;;;;;7.23;6.63;;;;;;;6.97;62.21;95862.38;6794425;28;20257;-71
2021/05/03 02:01:01;;;;;;;8.27;6.40;;;;;;;6.91;61.67;95858.34;6825608;28;20222;-71
2021/05/03 02:04:21;;;;;;;7.10;6.40;;;;;;;6.89;62.08;95860.25;6809632;28;20299;-71
2021/05/03 02:07:42;;;;;;;7.47;6.80;;;;;;;6.86;61.88;95855.16;6810261;28;20733;-71
2021/05/03 02:11:02;;;;;;;8.47;7.67;;;;;;;6.83;61.89;95873.84;6827048;28;20707;-71
2021/05/03 02:14:23;;;;;;;9.93;9.03;;;;;;;6.79;62.92;95861.78;6809038;28;20223;-71
2021/05/03 02:17:43;;;;;;;8.37;7.57;;;;;;;6.75;62.80;95865.56;6804068;28;20226;-70
2021/05/03 02:21:04;;;;;;;8.27;7.53;;;;;;;6.68;62.82;95865.13;6791236;28;20604;-71
2021/05/03 02:24:26;;;;;;;8.27;7.37;;;;;;;6.65;62.64;95862.66;6825087;28;20223;-71
2021/05/03 02:27:48;;;;;;;7.57;6.87;;;;;;;6.60;62.63;95864.75;6809038;28;20226;-71
2021/05/03 02:31:08;;;;;;;8.30;7.53;;;;;;;6.54;62.42;95859.03;6805984;28;20223;-71
2021/05/03 02:34:28;;;;;;;7.93;7.23;;;;;;;6.44;62.00;95858.72;6807374;28;20379;-71
2021/05/03 02:37:58;;;;;;;6.70;6.13;;;;;;;6.46;62.04;95859.50;6808293;28;20726;-71
2021/05/03 02:41:18;;;;;;;7.33;6.63;;;;;;;6.45;61.86;95869.19;6807061;28;20589;-71
2021/05/03 02:44:39;;;;;;;6.80;6.30;;;;;;;6.46;61.65;95862.13;6801735;28;21026;-71
2021/05/03 02:48:00;;;;;;;7.03;6.43;;;;;;;6.43;61.75;95859.69;6825024;28;20622;-71
2021/05/03 02:51:20;;;;;;;7.90;6.60;;;;;;;6.42;61.80;95858.84;6805323;28;20215;-71
2021/05/03 02:54:41;;;;;;;9.37;8.50;;;;;;;6.39;62.25;95866.94;6788831;28;20222;-70
2021/05/03 02:58:04;;;;;;;7.47;6.63;;;;;;;6.31;62.23;95865.72;6826249;28;20226;-71
2021/05/03 03:01:24;;;;;;;7.90;7.27;;;;;;;6.28;62.40;95871.22;6808381;28;20276;-72
2021/05/03 03:04:45;;;;;;;8.70;7.90;;;;;;;6.22;62.69;95864.53;6791743;28;20215;-71
2021/05/03 03:08:08;;;;;;;8.03;7.23;;;;;;;6.17;63.15;95876.28;6832522;28;20246;-71
2021/05/03 03:11:29;;;;;;;7.83;7.13;;;;;;;6.14;62.79;95871.19;6822823;28;20218;-71
2021/05/03 03:14:50;;;;;;;8.13;7.43;;;;;;;6.14;62.59;95879.09;6819847;28;20245;-71
2021/05/03 03:18:10;;;;;;;8.73;7.93;;;;;;;6.11;62.85;95879.31;6826514;28;20630;-70
2021/05/03 03:21:31;;;;;;;8.37;7.57;;;;;;;6.07;63.03;95880.44;6808186;28;20223;-70
2021/05/03 03:24:51;;;;;;;7.90;7.00;;;;;;;6.05;62.97;95877.88;6808683;28;20311;-71
2021/05/03 03:28:12;;;;;;;8.03;7.23;;;;;;;5.98;62.58;95871.31;6809132;28;20353;-71
2021/05/03 03:31:32;;;;;;;8.77;7.97;;;;;;;5.93;63.00;95865.47;6832735;28;20673;-71
2021/05/03 03:34:52;;;;;;;8.53;7.80;;;;;;;5.95;63.02;95872.31;6820372;28;20277;-71
2021/05/03 03:38:16;;;;;;;8.60;7.90;;;;;;;5.96;63.15;95870.53;6827521;28;20240;-71
2021/05/03 03:41:36;;;;;;;7.80;7.10;;;;;;;5.96;63.34;95876.66;6835367;28;20238;-71
2021/05/03 03:44:58;;;;;;;7.77;7.07;;;;;;;5.96;62.94;95875.81;6830607;28;20293;-70
2021/05/03 03:48:18;;;;;;;7.77;7.07;;;;;;;5.97;62.70;95882.78;6845396;28;20680;-71
2021/05/03 03:51:38;;;;;;;9.67;8.07;;;;;;;6.00;62.76;95880.81;6813301;28;20233;-71
2021/05/03 03:54:59;;;;;;;6.80;6.20;;;;;;;5.99;62.67;95878.25;6823769;28;20226;-71
2021/05/03 03:58:20;;;;;;;8.80;8.10;;;;;;;5.92;62.61;95887.50;6797284;28;20226;-71
2021/05/03 04:01:41;;;;;;;8.97;8.07;;;;;;;5.87;63.62;95890.41;6830083;28;20226;-71
2021/05/03 04:26:26;;;;;;;8.60;7.70;;;;;;;5.69;63.18;95895.88;6811366;28;20670;-71
2021/05/03 04:29:50;;;;;;;10.20;8.90;;;;;;;5.63;63.91;95904.16;6796036;28;20719;-72
2021/05/03 04:33:14;;;;;;;8.17;7.47;;;;;;;5.60;64.27;95907.81;6810443;28;20230;-72
2021/05/03 04:36:34;;;;;;;10.57;8.73;;;;;;;5.57;64.67;95915.91;6804648;28;20215;-72
2021/05/03 04:39:55;;;;;;;13.93;11.40;;;;;;;5.51;64.61;95921.53;6793851;28;20223;-73
2021/05/03 04:43:15;;;;;;;11.13;9.23;;;;;;;5.47;65.26;95922.66;6813040;28;20629;-74
2021/05/03 04:46:35;;;;;;;213.53;13.83;;;;;;;5.44;65.27;95922.81;6822018;28;20215;-72
2021/05/03 04:49:58;;;;;;;182.10;12.73;;;;;;;5.45;65.96;95921.88;6807880;28;20223;-74
2021/05/03 04:53:21;;;;;;;36.23;9.70;;;;;;;5.47;67.04;95931.41;6822183;28;20227;-71
2021/05/03 04:56:44;;;;;;;8.77;8.00;;;;;;;5.55;67.12;95926.53;6829355;28;20725;-75
2021/05/03 05:00:05;;;;;;;10.10;9.20;;;;;;;5.70;67.17;95935.31;6808576;28;20229;-74
2021/05/03 05:03:25;;;;;;;8.63;7.93;;;;;;;5.86;66.85;95933.47;6811345;28;20238;-75
2021/05/03 05:06:46;;;;;;;7.70;7.00;;;;;;;6.06;66.15;95936.75;6823578;28;20260;-73
2021/05/03 05:10:07;;;;;;;7.37;6.67;;;;;;;6.24;65.62;95939.09;6821295;28;20232;-73
2021/05/03 05:13:30;;;;;;;7.90;7.20;;;;;;;6.35;65.34;95941.94;6843198;28;20597;-74
2021/05/03 05:16:53;;;;;;;8.57;6.97;;;;;;;6.49;64.99;95940.25;6809566;28;20233;-72
2021/05/03 05:20:15;;;;;;;9.43;8.30;;;;;;;6.57;64.49;95945.91;6821373;28;20282;-73
2021/05/03 05:23:35;;;;;;;6.83;6.23;;;;;;;6.64;64.37;95942.78;6808473;28;20249;-73
2021/05/03 05:26:56;;;;;;;7.07;6.47;;;;;;;6.71;63.69;95945.88;6796196;28;20591;-73
2021/05/03 05:30:16;;;;;;;8.40;7.60;;;;;;;6.80;63.54;95946.16;6796628;28;20227;-73
2021/05/03 05:33:37;;;;;;;6.70;6.10;;;;;;;7.01;63.83;95943.09;6807878;28;20210;-74
2021/05/03 05:36:57;;;;;;;7.30;6.60;;;;;;;7.16;63.28;95942.97;6802907;28;20249;-72
2021/05/03 05:40:20;;;;;;;7.93;7.23;;;;;;;7.37;62.94;95951.28;6808398;28;20622;-73
2021/05/03 05:43:41;;;;;;;12.37;11.30;;;;;;;7.56;62.81;95953.56;6823394;28;20314;-72
2021/05/03 05:47:02;;;;;;;9.37;8.47;;;;;;;7.74;62.25;95952.38;6806920;28;20715;-74
2021/05/03 05:50:24;;;;;;;7.40;6.73;;;;;;;7.90;61.94;95949.53;6825826;28;20219;-72
2021/05/03 05:53:44;;;;;;;7.20;6.60;;;;;;;8.07;61.46;95952.75;6818870;28;20769;-74
2021/05/03 05:57:05;;;;;;;6.40;5.90;;;;;;;8.22;61.07;95950.00;6819703;28;20691;-73
2021/05/03 06:00:29;;;;;;;6.33;5.83;;;;;;;8.37;60.59;95951.63;6821844;28;20229;-73
2021/05/03 06:03:49;;;;;;;6.33;5.73;;;;;;;8.48;60.21;95957.03;6820479;28;20223;-73
2021/05/03 06:07:10;;;;;;;5.50;5.00;;;;;;;8.65;59.81;95954.03;6836210;28;20313;-73
2021/05/03 06:10:30;;;;;;;5.40;5.00;;;;;;;8.77;59.40;95944.41;6836128;28;20233;-74
2021/05/03 06:13:50;;;;;;;13.37;12.00;;;;;;;8.93;58.86;95948.50;6836679;28;20264;-73
2021/05/03 06:17:11;;;;;;;5.57;4.80;;;;;;;9.10;58.76;95949.97;6853317;28;20355;-73
2021/05/03 06:20:34;;;;;;;7.53;6.80;;;;;;;9.33;58.36;95950.94;6844283;28;20216;-74
2021/05/03 06:23:54;;;;;;;5.47;4.97;;;;;;;9.45;58.41;95945.59;6832587;28;20256;-72
2021/05/03 06:27:15;;;;;;;5.53;5.03;;;;;;;9.63;58.09;95948.69;6853065;28;20245;-73
2021/05/03 06:30:35;;;;;;;4.93;4.53;;;;;;;9.74;57.83;95948.75;6836051;28;20221;-75
2021/05/03 06:33:56;;;;;;;5.57;4.93;;;;;;;9.90;57.56;95948.44;6835673;28;20756;-74
2021/05/03 06:37:16;;;;;;;4.50;4.10;;;;;;;10.10;57.32;95955.75;6828036;28;20640;-74
2021/05/03 06:40:39;;;;;;;5.97;5.47;;;;;;;10.32;56.90;95953.16;6816951;28;20222;-74
2021/05/03 06:44:00;;;;;;;4.30;3.90;;;;;;;10.56;55.96;95952.25;6832554;28;20249;-74
2021/05/03 06:47:20;;;;;;;4.87;4.40;;;;;;;10.76;55.38;95957.69;6851830;28;20218;-75
2021/05/03 06:50:45;;;;;;;5.77;4.37;;;;;;;10.95;54.37;95946.47;6819548;28;20595;-74
2021/05/03 06:54:05;;;;;;;4.67;4.30;;;;;;;11.19;53.90;95963.13;6834658;28;20300;-75
2021/05/03 06:57:26;;;;;;;4.73;4.33;;;;;;;11.44;52.98;95966.44;6812943;28;20237;-75
2021/05/03 07:00:49;;;;;;;5.57;5.07;;;;;;;11.68;52.00;95952.97;6835704;28;20217;-75
2021/05/03 07:04:09;;;;;;;5.07;4.63;;;;;;;11.94;50.79;95954.34;6807836;28;20611;-75
2021/05/03 07:07:33;;;;;;;4.67;4.27;;;;;;;12.24;49.97;95946.47;6835323;28;20724;-75
2021/05/03 07:10:53;;;;;;;4.93;4.40;;;;;;;12.53;49.75;95945.81;6820335;28;20218;-75
2021/05/03 07:14:16;;;;;;;4.37;3.97;;;;;;;12.84;49.62;95945.69;6839918;28;20236;-75
2021/05/03 07:17:37;;;;;;;4.13;3.80;;;;;;;13.19;49.36;95950.66;6852385;28;20737;-75
2021/05/03 07:20:57;;;;;;;4.77;4.47;;;;;;;13.44;48.25;95941.31;6840663;28;20229;-75
2021/05/03 07:24:17;;;;;;;3.80;3.50;;;;;;;13.74;48.50;95940.38;6825327;28;20226;-76
2021/05/03 07:27:38;;;;;;;4.03;3.73;;;;;;;14.12;48.26;95940.44;6840052;28;20252;-75
2021/05/03 07:31:00;;;;;;;4.00;3.70;;;;;;;14.47;47.56;95941.69;6857695;28;20209;-75
2021/05/03 07:34:20;;;;;;;4.43;4.00;;;;;;;14.80;46.79;95938.50;6839804;28;21008;-75
2021/05/03 07:37:41;;;;;;;4.20;3.90;;;;;;;15.11;46.03;95930.22;6824080;28;20571;-75
2021/05/03 07:41:04;;;;;;;4.37;4.00;;;;;;;15.40;45.65;95937.13;6817880;28;20218;-75
2021/05/03 07:44:25;;;;;;;4.60;4.20;;;;;;;15.73;45.14;95927.69;6855824;28;20725;-76
2021/05/03 07:47:46;;;;;;;5.37;4.77;;;;;;;16.14;44.75;95933.44;6840176;28;20657;-77
2021/05/03 07:51:07;;;;;;;7.43;4.03;;;;;;;16.37;44.40;95940.00;6823807;28;20709;-75
2021/05/03 07:54:27;;;;;;;3.93;3.63;;;;;;;16.70;43.12;95939.28;6835230;28;20222;-75
2021/05/03 07:57:48;;;;;;;4.50;4.20;;;;;;;16.88;42.77;95941.91;6836876;28;20260;-75
2021/05/03 08:01:09;;;;;;;4.77;4.40;;;;;;;17.13;41.93;95949.13;6823204;28;20206;-76
2021/05/03 08:04:30;;;;;;;4.80;4.40;;;;;;;17.30;42.07;95947.34;6823598;28;20225;-76
2021/05/03 08:07:52;;;;;;;5.53;4.10;;;;;;;17.46;41.32;95935.84;6823741;28;20225;-76
2021/05/03 08:11:14;;;;;;;4.97;4.50;;;;;;;17.65;40.58;95934.78;6815667;28;20249;-76
2021/05/03 08:14:36;;;;;;;5.30;4.90;;;;;;;17.95;39.80;95936.88;6823432;28;20211;-76
2021/05/03 08:17:56;;;;;;;4.90;4.47;;;;;;;18.20;38.86;95932.38;6823103;28;20234;-75
2021/05/03 08:21:17;;;;;;;4.47;4.07;;;;;;;18.36;37.83;95937.75;6839037;28;20233;-76
2021/05/03 08:24:37;;;;;;;4.70;4.30;;;;;;;18.68;36.60;95935.09;6855519;28;20245;-76
2021/05/03 08:27:58;;;;;;;4.37;4.00;;;;;;;18.91;35.98;95935.28;6822323;28;20220;-76
2021/05/03 08:31:18;;;;;;;4.80;4.40;;;;;;;19.23;35.23;95940.56;6839343;28;20215;-77
2021/05/03 08:34:39;;;;;;;4.60;4.20;;;;;;;19.64;34.64;95937.75;6812227;28;20242;-77
2021/05/03 08:38:00;;;;;;;4.73;4.33;;;;;;;20.04;33.17;95934.84;6822856;28;20221;-76
2021/05/03 08:41:20;;;;;;;3.60;3.30;;;;;;;20.50;30.66;95921.41;6822796;28;20228;-76
2021/05/03 08:44:48;;;;;;;4.37;3.47;;;;;;;21.21;28.73;95922.81;6838435;28;20316;-76
2021/05/03 08:55:18;;;;;;;4.65;3.78;;;;;;;23.61;25.16;95912.19;6844590;28;20565;-74
2021/05/03 08:58:39;;;;;;;5.95;3.60;;;;;;;24.54;23.46;95902.53;6851111;28;20706;-74
2021/05/03 09:02:00;;;;;;;4.75;4.03;;;;;;;25.17;22.35;95899.22;6822065;28;20335;-75
2021/05/03 09:05:23;;;;;;;4.15;3.53;;;;;;;25.91;21.84;95904.28;6805711;28;20909;-74
2021/05/03 09:08:43;;;;;;;4.68;4.30;;;;;;;26.41;21.02;95893.59;6838212;28;20225;-74
2021/05/03 09:12:09;;;;;;;4.03;3.72;;;;;;;27.11;20.62;95894.38;6854993;28;20213;-74
2021/05/03 09:15:30;;;;;;;6.60;4.25;;;;;;;26.64;20.26;95902.03;6827292;28;20225;-73
2021/05/03 09:18:53;;;;;;;4.18;3.88;;;;;;;26.20;20.62;95889.31;6855361;28;20652;-74
2021/05/03 09:22:27;;;;;;;4.65;3.83;;;;;;;25.18;21.05;95884.59;6836747;28;20228;-74
2021/05/03 09:25:51;;;;;;;3.50;3.20;;;;;;;24.05;22.07;95884.63;6850742;28;20215;-74
2021/05/03 09:29:36;;;;;;;3.83;3.10;;;;;;;23.15;23.18;95890.19;6818982;28;20277;-74
2021/05/03 09:33:19;;;;;;;3.50;3.10;;;;;;;22.22;23.87;95893.13;6850628;28;20747;-73
2021/05/03 09:36:39;;;;;;;3.50;3.20;;;;;;;21.42;24.47;95892.34;6830699;28;20223;-74
2021/05/03 09:40:12;;;;;;;3.47;2.97;;;;;;;20.70;25.57;95884.81;6821826;28;20226;-74
2021/05/03 09:43:32;;;;;;;4.97;3.60;;;;;;;20.09;26.64;95893.88;6841393;28;20228;-73
2021/05/03 09:46:58;;;;;;;3.57;3.10;;;;;;;19.61;27.57;95897.72;6814344;28;20218;-74
2021/05/03 09:50:21;;;;;;;3.23;2.93;;;;;;;19.45;28.16;95897.78;6843983;28;20220;-73
2021/05/03 09:54:10;;;;;;;3.50;3.20;;;;;;;19.40;28.63;95883.97;6805697;28;20222;-74
2021/05/03 09:57:36;;;;;;;3.73;3.30;;;;;;;21.39;27.76;95877.34;6949077;27;20549;-75
2021/05/03 10:00:57;;;;;;;3.53;3.23;;;;;;;23.50;25.24;95875.63;6939222;28;20262;-75
2021/05/03 10:04:19;;;;;;;4.20;3.30;;;;;;;25.41;22.56;95853.34;6918698;28;20229;-75
2021/05/03 10:07:42;;;;;;;4.93;3.10;;;;;;;26.83;21.10;95853.88;6926134;28;20220;-76
2021/05/03 10:11:13;;;;;;;4.22;3.83;;;;;;;27.96;19.38;95849.81;6940707;28;20294;-75
2021/05/03 10:14:36;;;;;;;3.28;2.97;;;;;;;28.73;19.58;95844.53;6965510;28;20701;-76
2021/05/03 10:17:57;;;;;;;4.60;4.20;;;;;;;29.45;18.54;95842.47;6965754;28;20226;-76
2021/05/03 10:21:17;;;;;;;3.05;2.80;;;;;;;29.21;17.16;95830.69;6966491;28;20238;-76
2021/05/03 10:24:38;;;;;;;5.43;3.33;;;;;;;29.16;17.39;95836.88;6947810;28;20593;-76
2021/05/03 10:27:59;;;;;;;2.85;2.65;;;;;;;29.67;17.74;95832.59;6955188;28;20218;-75
2021/05/03 10:31:20;;;;;;;5.53;2.90;;;;;;;30.03;16.02;95820.50;6971709;28;20612;-76
2021/05/03 10:34:46;;;;;;;3.75;2.97;;;;;;;29.69;16.10;95811.25;6967327;28;20600;-76
2021/05/03 10:38:30;;;;;;;3.35;3.05;;;;;;;29.99;16.15;95800.13;6954896;28;20223;-76
2021/05/03 10:42:08;;;;;;;2.70;2.45;;;;;;;30.54;16.80;95795.72;6976732;28;20700;-76
2021/05/03 10:46:13;;;;;;;2.85;2.65;;;;;;;30.76;15.43;95792.25;6959135;28;20233;-76
2021/05/03 10:49:43;;;;;;;3.08;2.78;;;;;;;30.21;14.64;95788.25;6963800;28;20714;-74
2021/05/03 10:53:19;;;;;;;2.70;2.50;;;;;;;28.82;15.22;95781.09;6960797;28;20690;-73
2021/05/03 10:56:41;;;;;;;2.67;2.25;;;;;;;27.68;15.81;95784.88;6962265;28;20223;-76
2021/05/03 11:00:05;;;;;;;3.15;2.45;;;;;;;26.23;17.53;95779.97;6964802;28;20264;-75
2021/05/03 11:03:57;;;;;;;3.00;2.78;;;;;;;25.03;18.41;95767.13;6960401;28;20702;-75
2021/05/03 11:07:17;;;;;;;2.92;2.60;;;;;;;23.32;18.16;95766.06;6960334;28;20216;-76
2021/05/03 11:11:03;;;;;;;2.88;2.40;;;;;;;22.15;19.85;95763.22;6940482;28;20245;-76
2021/05/03 11:14:26;;;;;;;3.27;2.67;;;;;;;21.52;21.27;95765.88;6962145;28;20253;-76
2021/05/03 11:18:20;;;;;;;2.63;2.43;;;;;;;20.79;21.30;95747.91;6965136;28;20231;-76
2021/05/03 11:21:45;;;;;;;4.03;3.73;;;;;;;20.47;21.94;95759.91;6953670;28;20301;-76
2021/05/03 11:25:19;;;;;;;3.00;2.70;;;;;;;19.93;22.61;95751.94;6944474;28;20223;-76
2021/05/03 11:28:45;;;;;;;2.80;2.60;;;;;;;19.65;22.41;95746.28;6950235;28;20221;-76
2021/05/03 11:32:06;;;;;;;2.97;2.50;;;;;;;19.52;23.03;95731.72;6956744;28;20714;-75
2021/05/03 11:35:39;;;;;;;2.30;2.10;;;;;;;19.57;24.48;95735.56;6947377;28;20638;-75
2021/05/03 11:39:22;;;;;;;3.07;2.87;;;;;;;19.74;23.92;95728.19;6962495;28;20217;-75
2021/05/03 11:46:10;;;;;;;2.73;2.53;;;;;;;19.61;22.83;95717.19;6962052;28;20208;-75
2021/05/03 11:49:43;;;;;;;2.70;2.20;;;;;;;19.37;24.17;95730.78;6966421;28;20768;-75
2021/05/03 11:53:04;;;;;;;3.50;3.20;;;;;;;19.25;24.17;95725.81;6960020;28;20211;-73
2021/05/03 11:56:25;;;;;;;3.07;2.20;;;;;;;19.25;25.23;95717.75;6954125;28;20594;-75
2021/05/03 11:59:47;;;;;;;2.87;2.63;;;;;;;18.97;25.10;95716.56;6951451;28;21048;-75
2021/05/03 12:03:11;;;;;;;2.50;2.33;;;;;;;18.75;25.49;95722.72;6955770;28;20223;-75
2021/05/03 12:06:39;;;;;;;2.63;2.43;;;;;;;18.79;25.42;95724.91;6947013;28;20761;-75
2021/05/03 12:10:06;;;;;;;2.87;2.63;;;;;;;18.46;25.22;95725.97;6932768;28;20215;-75
2021/05/03 12:13:26;;;;;;;4.13;2.20;;;;;;;18.65;25.79;95719.41;6947163;28;20275;-75
2021/05/03 12:16:46;;;;;;;2.87;2.67;;;;;;;18.83;25.17;95710.06;6960641;28;20242;-75
2021/05/03 12:20:09;;;;;;;2.77;2.57;;;;;;;19.01;24.98;95704.41;6964390;28;20239;-73
2021/05/03 12:23:30;;;;;;;4.00;2.50;;;;;;;19.09;25.07;95696.31;6952363;28;20210;-75
2021/05/03 12:26:57;;;;;;;2.67;2.47;;;;;;;18.81;24.75;95689.75;6953190;28;20303;-75
2021/05/03 12:30:18;;;;;;;3.23;2.50;;;;;;;18.53;25.34;95693.84;6945951;28;20213;-75
2021/05/03 12:33:39;;;;;;;3.00;2.40;;;;;;;18.57;25.79;95692.53;6934448;28;20226;-75
2021/05/03 12:37:04;;;;;;;2.70;2.03;;;;;;;18.64;26.51;95688.13;6954596;28;20217;-75
2021/05/03 12:40:24;;;;;;;2.57;2.37;;;;;;;18.88;27.81;95679.94;6966112;28;20694;-75
2021/05/03 12:43:45;;;;;;;2.37;2.17;;;;;;;18.94;25.75;95667.63;6972695;28;20311;-75
2021/05/03 12:47:45;;;;;;;2.37;2.13;;;;;;;18.78;25.99;95672.09;6967913;28;20217;-75
2021/05/03 12:55:01;;;;;;;3.60;2.30;;;;;;;18.62;25.74;95652.50;6954782;28;20216;-75
2021/05/03 12:58:52;;;;;;;3.00;2.50;;;;;;;18.67;25.92;95647.41;6948612;28;20269;-75
2021/05/03 13:02:12;;;;;;;2.27;2.07;;;;;;;18.73;26.30;95646.72;6955077;28;20211;-75
2021/05/03 13:05:38;;;;;;;2.80;2.60;;;;;;;18.86;26.56;95641.63;6951058;28;20701;-75
2021/05/03 13:31:03;;;;;;;2.77;2.50;;;;;;;18.31;27.12;95606.72;6958013;28;20633;-75
2021/05/03 13:34:24;;;;;;;2.40;2.20;;;;;;;18.07;27.66;95604.13;6942787;28;20723;-75
2021/05/03 13:37:44;;;;;;;3.10;2.67;;;;;;;17.94;27.80;95594.78;6933681;28;20273;-75
2021/05/03 13:41:04;;;;;;;3.33;3.00;;;;;;;17.89;28.55;95593.63;6970691;28;20219;-75
2021/05/03 13:44:25;;;;;;;2.87;2.57;;;;;;;17.93;28.15;95586.88;6957132;28;20255;-75
2021/05/03 13:47:46;;;;;;;3.00;2.43;;;;;;;18.02;29.06;95583.16;6957070;28;20218;-75
2021/05/03 13:51:08;;;;;;;2.60;2.30;;;;;;;18.13;28.80;95576.56;6966445;28;20242;-75
2021/05/03 13:54:29;;;;;;;2.63;2.40;;;;;;;18.16;28.37;95576.22;6963128;28;20203;-75
2021/05/03 13:57:49;;;;;;;2.70;2.47;;;;;;;18.10;27.39;95582.31;6963242;28;20302;-75
2021/05/03 14:01:10;;;;;;;3.10;2.80;;;;;;;18.02;27.58;95575.09;6948724;28;20219;-75
2021/05/03 14:04:31;;;;;;;3.23;2.37;;;;;;;17.94;27.57;95567.06;6954017;28;20278;-75
2021/05/03 14:07:51;;;;;;;2.83;2.30;;;;;;;17.90;28.13;95558.53;6958908;28;20208;-75
2021/05/03 14:11:12;;;;;;;4.03;2.33;;;;;;;17.98;28.56;95544.22;6949775;28;20223;-76
2021/05/03 14:14:34;;;;;;;2.60;2.40;;;;;;;18.00;28.38;95537.66;6939940;28;20261;-75
2021/05/03 14:17:55;;;;;;;3.90;2.70;;;;;;;17.89;28.10;95529.16;6952899;28;20642;-75
2021/05/03 14:21:18;;;;;;;2.60;2.40;;;;;;;17.77;28.31;95523.31;6922727;28;20718;-75
2021/05/03 14:24:38;;;;;;;3.50;3.20;;;;;;;17.55;28.18;95526.72;6952173;28;20225;-75
2021/05/03 14:28:05;;;;;;;2.50;2.27;;;;;;;17.43;28.31;95522.72;6945175;28;20310;-75
2021/05/03 14:31:30;;;;;;;3.23;2.47;;;;;;;17.38;29.08;95527.75;6957201;28;20303;-75
2021/05/03 14:35:01;;;;;;;3.07;2.23;;;;;;;17.46;29.08;95525.03;6958688;28;20226;-75
2021/05/03 14:38:22;;;;;;;6.17;2.40;;;;;;;17.42;28.98;95512.97;6943990;28;20859;-75
2021/05/03 14:41:43;;;;;;;6.53;2.50;;;;;;;17.44;29.10;95513.66;6953014;28;20774;-75
2021/05/03 14:45:07;;;;;;;2.63;2.43;;;;;;;17.47;29.46;95513.28;6976811;28;20469;-75
2021/05/03 14:55:11;;;;;;;2.53;2.33;;;;;;;17.33;29.40;95489.84;6957628;28;20227;-75
2021/05/03 14:58:33;;;;;;;2.97;2.33;;;;;;;17.35;29.55;95494.03;6958596;28;20231;-75
2021/05/03 15:01:53;;;;;;;4.60;2.30;;;;;;;17.38;29.42;95492.84;6940695;28;20216;-76
2021/05/03 15:05:14;;;;;;;2.30;2.10;;;;;;;17.41;29.23;95487.97;6954241;28;20282;-76
2021/05/03 15:08:34;;;;;;;3.33;2.30;;;;;;;17.33;29.13;95477.28;6955676;28;20258;-76
2021/05/03 15:11:55;;;;;;;4.93;2.23;;;;;;;17.32;29.52;95485.47;6960173;28;20229;-76
2021/05/03 15:15:33;;;;;;;2.77;2.23;;;;;;;17.31;29.40;95473.91;6956591;28;20223;-76
2021/05/03 15:22:34;;;;;;;2.13;1.93;;;;;;;17.27;29.74;95459.16;6957148;28;20214;-76
2021/05/03 15:25:58;;;;;;;2.27;2.07;;;;;;;17.19;29.63;95455.66;6961806;28;20843;-76
2021/05/03 15:29:45;;;;;;;2.40;2.20;;;;;;;17.13;30.08;95454.50;6950329;28;20593;-76
2021/05/03 15:36:38;;;;;;;3.90;2.57;;;;;;;17.02;30.01;95449.50;6961693;28;20222;-76
2021/05/03 15:39:59;;;;;;;3.60;2.07;;;;;;;17.09;30.45;95445.97;6934418;28;20241;-76
2021/05/03 15:43:21;;;;;;;4.33;2.30;;;;;;;17.10;29.87;95441.44;6980756;28;20211;-76
2021/05/03 15:46:42;;;;;;;2.97;2.57;;;;;;;17.13;29.89;95439.25;6964416;28;20218;-76
2021/05/03 15:50:05;;;;;;;2.63;2.20;;;;;;;17.23;30.03;95444.41;6943662;28;20233;-76
2021/05/03 15:53:26;;;;;;;1.80;1.70;;;;;;;17.28;29.58;95441.22;6956619;28;20250;-76
2021/05/03 15:56:46;;;;;;;3.10;2.33;;;;;;;17.23;29.00;95432.84;6946317;28;20219;-76
2021/05/03 16:00:09;;;;;;;3.77;2.37;;;;;;;17.09;29.07;95437.91;6951130;28;20224;-76
2021/05/03 16:03:32;;;;;;;2.10;1.77;;;;;;;16.96;29.94;95432.22;6934457;28;20223;-76
2021/05/03 16:06:53;;;;;;;2.00;1.80;;;;;;;16.89;30.59;95427.72;6973257;28;20227;-75
2021/05/03 16:10:16;;;;;;;2.40;2.20;;;;;;;16.86;30.43;95422.69;6953348;28;20292;-76
2021/05/03 16:13:36;;;;;;;3.30;1.90;;;;;;;16.76;30.58;95430.09;6967256;28;20222;-76
2021/05/03 16:16:57;;;;;;;3.13;2.30;;;;;;;16.79;31.06;95419.88;6946127;28;20269;-76
2021/05/03 16:20:20;;;;;;;2.87;2.10;;;;;;;16.86;31.50;95426.22;6935917;28;20703;-76
2021/05/03 16:23:43;;;;;;;2.30;2.10;;;;;;;16.94;31.03;95417.31;6954355;28;20631;-76
2021/05/03 16:27:03;;;;;;;2.40;2.03;;;;;;;16.83;31.11;95417.69;6946287;28;20238;-76
2021/05/03 16:30:24;;;;;;;3.23;2.57;;;;;;;16.66;30.84;95417.69;6957626;28;20587;-75
2021/05/03 16:33:45;;;;;;;3.03;2.10;;;;;;;16.52;31.33;95415.66;6949203;28;20644;-76
2021/05/03 16:37:05;;;;;;;2.47;2.27;;;;;;;16.51;31.76;95403.25;6951107;28;20219;-76
2021/05/03 16:40:26;;;;;;;3.40;2.33;;;;;;;16.54;31.80;95402.94;6957279;28;20736;-76
2021/05/03 16:43:46;;;;;;;2.57;2.30;;;;;;;16.51;31.82;95413.16;6959680;28;20218;-76
2021/05/03 16:47:07;;;;;;;2.30;2.00;;;;;;;16.37;31.79;95416.50;6954443;28;20220;-75
2021/05/03 16:50:30;;;;;;;3.93;2.60;;;;;;;16.26;31.76;95412.31;6959475;28;20736;-76
2021/05/03 16:53:51;;;;;;;2.80;2.60;;;;;;;16.22;31.53;95408.28;6929187;28;20235;-76
2021/05/03 16:57:12;;;;;;;2.57;2.23;;;;;;;16.27;31.52;95408.63;6952264;28;20247;-76
2021/05/03 17:00:32;;;;;;;3.47;2.23;;;;;;;16.23;31.72;95404.63;6947649;28;20250;-76
2021/05/03 17:03:52;;;;;;;2.50;2.30;;;;;;;16.10;31.83;95399.75;6945210;28;20587;-76
2021/05/03 17:07:13;;;;;;;2.40;2.20;;;;;;;16.02;31.87;95391.72;6959344;28;20208;-76
2021/05/03 17:10:34;;;;;;;2.30;2.00;;;;;;;16.02;32.33;95391.72;6942951;28;20218;-76